Aviation Digital Data Service (ADDS)

Output produced by METARs form (0058 UTC 22 September 2017)
found at http://www.aviationweather.gov/adds/metars/
 
DXXX 220000Z 22012KT 9999 FEW011 26/23 Q1013 NOSIG
TAF DXXX 212300Z 2200/2306 22012KT 9999 SCT012
       
DXNG 220000Z 06004KT 9999 FEW005 20/19 Q1014
TAF DXNG 212300Z 2200/2224 VRB03KT 8000 -TSRA SCT006 FEW016CB 
     TEMPO 2200/2206 4000 TSRA 
     FM220900 26005KT 9999 SCT008